Guthrie, North Carolina
Current Conditions -  °F | °C
As of 2:54 PM on Sunday 23 Nov 2014 (Local Time) from KGSO Reporting Station
Light Rain Light Rain  
Wind Chill: 51°   Ceiling: 1300
Heat Index: 51°   Visibility: 9mi
Dew Point: 46°   Wind: 6mph
Humidity: 83%   Direction: 70°ENE
Pressure: 30.03"   Gusts: NA
Location:  36.1188°N, 80.075°W
Report Text: KGSO 231954Z 07005KT 9SM -RA OVC013 11/08 A3003 RMK AO2 SLP169 P0000 T01060078
Loading
Personal Weather Stations






























Interactive Weather Map New forecast layout! Learn more

10-Day Weather Forecast

Advertisements
Track Severe Weather on mobile